sensor_id;sensor_type;location;lat;lon;timestamp;P1;durP1;ratioP1;P2;durP2;ratioP2
7247;SDS011;3665;51.034;13.642;2024-03-17T00:00:34;3.33;;;2.60;;
7247;SDS011;3665;51.034;13.642;2024-03-17T00:05:18;4.07;;;2.50;;
7247;SDS011;3665;51.034;13.642;2024-03-17T00:10:09;2.10;;;2.00;;
7247;SDS011;3665;51.034;13.642;2024-03-17T00:14:54;3.83;;;2.40;;
7247;SDS011;3665;51.034;13.642;2024-03-17T00:19:37;3.40;;;2.40;;
7247;SDS011;3665;51.034;13.642;2024-03-17T00:24:32;5.27;;;2.57;;
7247;SDS011;3665;51.034;13.642;2024-03-17T00:29:17;4.00;;;2.30;;
7247;SDS011;3665;51.034;13.642;2024-03-17T00:33:59;4.70;;;2.50;;
7247;SDS011;3665;51.034;13.642;2024-03-17T00:38:46;6.17;;;2.60;;
7247;SDS011;3665;51.034;13.642;2024-03-17T00:43:43;3.67;;;2.23;;
7247;SDS011;3665;51.034;13.642;2024-03-17T00:48:30;5.50;;;2.70;;
7247;SDS011;3665;51.034;13.642;2024-03-17T00:53:19;4.43;;;2.93;;
7247;SDS011;3665;51.034;13.642;2024-03-17T00:58:04;5.10;;;2.53;;
7247;SDS011;3665;51.034;13.642;2024-03-17T01:02:55;3.90;;;3.17;;
7247;SDS011;3665;51.034;13.642;2024-03-17T01:07:41;5.07;;;3.10;;
7247;SDS011;3665;51.034;13.642;2024-03-17T01:12:24;3.60;;;2.93;;
7247;SDS011;3665;51.034;13.642;2024-03-17T01:17:14;2.63;;;2.43;;
7247;SDS011;3665;51.034;13.642;2024-03-17T01:22:00;3.83;;;3.00;;
7247;SDS011;3665;51.034;13.642;2024-03-17T01:26:53;5.30;;;2.93;;
7247;SDS011;3665;51.034;13.642;2024-03-17T01:31:36;5.77;;;3.53;;
7247;SDS011;3665;51.034;13.642;2024-03-17T01:36:21;3.80;;;2.30;;
7247;SDS011;3665;51.034;13.642;2024-03-17T01:41:03;4.60;;;2.57;;
7247;SDS011;3665;51.034;13.642;2024-03-17T01:45:50;4.43;;;2.47;;
7247;SDS011;3665;51.034;13.642;2024-03-17T01:50:38;3.23;;;2.47;;
7247;SDS011;3665;51.034;13.642;2024-03-17T01:55:23;3.77;;;2.70;;
7247;SDS011;3665;51.034;13.642;2024-03-17T02:00:09;6.57;;;2.47;;
7247;SDS011;3665;51.034;13.642;2024-03-17T02:05:09;3.13;;;2.70;;
7247;SDS011;3665;51.034;13.642;2024-03-17T02:09:52;4.20;;;3.20;;
7247;SDS011;3665;51.034;13.642;2024-03-17T02:14:35;4.10;;;2.67;;
7247;SDS011;3665;51.034;13.642;2024-03-17T02:19:20;3.93;;;2.50;;
7247;SDS011;3665;51.034;13.642;2024-03-17T02:24:16;7.23;;;3.13;;
7247;SDS011;3665;51.034;13.642;2024-03-17T02:29:00;3.93;;;2.50;;
7247;SDS011;3665;51.034;13.642;2024-03-17T02:33:49;8.07;;;3.37;;
7247;SDS011;3665;51.034;13.642;2024-03-17T02:38:32;4.80;;;3.10;;
7247;SDS011;3665;51.034;13.642;2024-03-17T02:43:37;4.10;;;3.13;;
7247;SDS011;3665;51.034;13.642;2024-03-17T02:48:21;6.30;;;2.93;;
7247;SDS011;3665;51.034;13.642;2024-03-17T02:53:04;4.80;;;2.40;;
7247;SDS011;3665;51.034;13.642;2024-03-17T02:57:47;4.13;;;2.90;;
7247;SDS011;3665;51.034;13.642;2024-03-17T03:02:31;5.70;;;3.10;;
7247;SDS011;3665;51.034;13.642;2024-03-17T03:07:21;5.27;;;2.40;;
7247;SDS011;3665;51.034;13.642;2024-03-17T03:12:07;4.63;;;2.60;;
7247;SDS011;3665;51.034;13.642;2024-03-17T03:16:53;4.27;;;2.27;;
7247;SDS011;3665;51.034;13.642;2024-03-17T03:21:37;3.53;;;2.73;;
7247;SDS011;3665;51.034;13.642;2024-03-17T03:26:19;4.70;;;2.80;;
7247;SDS011;3665;51.034;13.642;2024-03-17T03:31:02;4.90;;;2.63;;
7247;SDS011;3665;51.034;13.642;2024-03-17T03:35:50;5.63;;;4.00;;
7247;SDS011;3665;51.034;13.642;2024-03-17T03:40:34;3.10;;;2.57;;
7247;SDS011;3665;51.034;13.642;2024-03-17T03:45:17;8.93;;;3.10;;
7247;SDS011;3665;51.034;13.642;2024-03-17T03:50:03;5.30;;;3.13;;
7247;SDS011;3665;51.034;13.642;2024-03-17T03:54:56;6.83;;;2.93;;
7247;SDS011;3665;51.034;13.642;2024-03-17T03:59:41;4.37;;;2.47;;
7247;SDS011;3665;51.034;13.642;2024-03-17T04:04:34;4.93;;;2.83;;
7247;SDS011;3665;51.034;13.642;2024-03-17T04:09:17;4.47;;;2.60;;
7247;SDS011;3665;51.034;13.642;2024-03-17T04:14:07;5.07;;;3.00;;
7247;SDS011;3665;51.034;13.642;2024-03-17T04:18:53;3.17;;;2.77;;
7247;SDS011;3665;51.034;13.642;2024-03-17T04:23:35;4.77;;;2.87;;
7247;SDS011;3665;51.034;13.642;2024-03-17T04:28:22;4.87;;;2.63;;
7247;SDS011;3665;51.034;13.642;2024-03-17T04:33:16;5.00;;;2.70;;
7247;SDS011;3665;51.034;13.642;2024-03-17T04:38:03;3.10;;;2.80;;
7247;SDS011;3665;51.034;13.642;2024-03-17T04:42:48;5.10;;;2.80;;
7247;SDS011;3665;51.034;13.642;2024-03-17T04:47:42;4.30;;;3.00;;
7247;SDS011;3665;51.034;13.642;2024-03-17T04:52:25;5.80;;;2.97;;
7247;SDS011;3665;51.034;13.642;2024-03-17T04:57:19;4.20;;;2.70;;
7247;SDS011;3665;51.034;13.642;2024-03-17T05:02:08;4.23;;;3.40;;
7247;SDS011;3665;51.034;13.642;2024-03-17T05:06:53;4.13;;;3.07;;
7247;SDS011;3665;51.034;13.642;2024-03-17T05:11:42;4.50;;;4.03;;
7247;SDS011;3665;51.034;13.642;2024-03-17T05:16:29;3.30;;;3.00;;
7247;SDS011;3665;51.034;13.642;2024-03-17T05:21:12;4.80;;;2.80;;
7247;SDS011;3665;51.034;13.642;2024-03-17T05:26:06;6.13;;;3.30;;
7247;SDS011;3665;51.034;13.642;2024-03-17T05:30:49;4.90;;;2.80;;
7247;SDS011;3665;51.034;13.642;2024-03-17T05:35:41;3.87;;;2.70;;
7247;SDS011;3665;51.034;13.642;2024-03-17T05:40:30;4.00;;;2.53;;
7247;SDS011;3665;51.034;13.642;2024-03-17T05:45:13;6.00;;;3.03;;
7247;SDS011;3665;51.034;13.642;2024-03-17T05:50:02;4.87;;;3.30;;
7247;SDS011;3665;51.034;13.642;2024-03-17T05:54:54;2.83;;;2.63;;
7247;SDS011;3665;51.034;13.642;2024-03-17T05:59:37;4.07;;;3.17;;
7247;SDS011;3665;51.034;13.642;2024-03-17T06:04:26;3.90;;;2.90;;
7247;SDS011;3665;51.034;13.642;2024-03-17T06:09:12;7.47;;;2.93;;
7247;SDS011;3665;51.034;13.642;2024-03-17T06:14:03;6.10;;;2.90;;
7247;SDS011;3665;51.034;13.642;2024-03-17T06:18:51;4.00;;;3.13;;
7247;SDS011;3665;51.034;13.642;2024-03-17T06:23:35;4.23;;;2.97;;
7247;SDS011;3665;51.034;13.642;2024-03-17T06:28:21;3.73;;;2.90;;
7247;SDS011;3665;51.034;13.642;2024-03-17T06:33:06;5.20;;;2.90;;
7247;SDS011;3665;51.034;13.642;2024-03-17T06:37:49;5.07;;;3.60;;
7247;SDS011;3665;51.034;13.642;2024-03-17T06:42:40;5.67;;;3.57;;
7247;SDS011;3665;51.034;13.642;2024-03-17T06:47:23;3.30;;;2.93;;
7247;SDS011;3665;51.034;13.642;2024-03-17T06:52:12;6.73;;;2.87;;
7247;SDS011;3665;51.034;13.642;2024-03-17T06:56:55;7.43;;;2.97;;
7247;SDS011;3665;51.034;13.642;2024-03-17T07:01:48;6.20;;;3.10;;
7247;SDS011;3665;51.034;13.642;2024-03-17T07:06:30;4.60;;;2.47;;
7247;SDS011;3665;51.034;13.642;2024-03-17T07:11:19;4.97;;;2.70;;
7247;SDS011;3665;51.034;13.642;2024-03-17T07:16:14;6.70;;;2.73;;
7247;SDS011;3665;51.034;13.642;2024-03-17T07:20:56;4.27;;;3.20;;
7247;SDS011;3665;51.034;13.642;2024-03-17T07:25:51;4.30;;;2.70;;
7247;SDS011;3665;51.034;13.642;2024-03-17T07:30:44;5.73;;;2.23;;
7247;SDS011;3665;51.034;13.642;2024-03-17T07:35:42;4.97;;;2.33;;
7247;SDS011;3665;51.034;13.642;2024-03-17T07:40:31;7.30;;;2.23;;
7247;SDS011;3665;51.034;13.642;2024-03-17T07:45:17;8.00;;;2.80;;
7247;SDS011;3665;51.034;13.642;2024-03-17T07:50:08;7.67;;;2.60;;
7247;SDS011;3665;51.034;13.642;2024-03-17T07:54:51;9.17;;;3.70;;
7247;SDS011;3665;51.034;13.642;2024-03-17T07:59:39;5.13;;;2.50;;
7247;SDS011;3665;51.034;13.642;2024-03-17T08:04:23;4.90;;;3.07;;
7247;SDS011;3665;51.034;13.642;2024-03-17T08:09:14;7.33;;;2.80;;
7247;SDS011;3665;51.034;13.642;2024-03-17T08:14:06;6.23;;;3.33;;
7247;SDS011;3665;51.034;13.642;2024-03-17T08:18:49;7.37;;;2.90;;
7247;SDS011;3665;51.034;13.642;2024-03-17T08:23:35;9.37;;;4.60;;
7247;SDS011;3665;51.034;13.642;2024-03-17T08:28:32;9.17;;;2.60;;
7247;SDS011;3665;51.034;13.642;2024-03-17T08:33:18;10.47;;;3.00;;
7247;SDS011;3665;51.034;13.642;2024-03-17T08:38:03;3.77;;;2.00;;
7247;SDS011;3665;51.034;13.642;2024-03-17T08:42:48;3.50;;;1.87;;
7247;SDS011;3665;51.034;13.642;2024-03-17T08:47:43;5.07;;;2.20;;
7247;SDS011;3665;51.034;13.642;2024-03-17T08:52:29;5.50;;;2.87;;
7247;SDS011;3665;51.034;13.642;2024-03-17T08:57:17;6.23;;;2.70;;
7247;SDS011;3665;51.034;13.642;2024-03-17T09:02:06;3.73;;;1.90;;
7247;SDS011;3665;51.034;13.642;2024-03-17T09:06:57;7.43;;;2.27;;
7247;SDS011;3665;51.034;13.642;2024-03-17T09:11:41;7.77;;;2.50;;
7247;SDS011;3665;51.034;13.642;2024-03-17T09:16:31;4.03;;;2.40;;
7247;SDS011;3665;51.034;13.642;2024-03-17T09:21:17;7.23;;;2.13;;
7247;SDS011;3665;51.034;13.642;2024-03-17T09:26:06;6.57;;;2.10;;
7247;SDS011;3665;51.034;13.642;2024-03-17T09:30:53;5.20;;;2.23;;
7247;SDS011;3665;51.034;13.642;2024-03-17T09:35:40;3.80;;;1.77;;
7247;SDS011;3665;51.034;13.642;2024-03-17T09:40:29;5.83;;;1.77;;
7247;SDS011;3665;51.034;13.642;2024-03-17T09:45:18;3.83;;;1.70;;
7247;SDS011;3665;51.034;13.642;2024-03-17T09:50:06;4.70;;;1.70;;
7247;SDS011;3665;51.034;13.642;2024-03-17T09:55:09;2.93;;;1.87;;
7247;SDS011;3665;51.034;13.642;2024-03-17T09:59:57;5.33;;;1.90;;
7247;SDS011;3665;51.034;13.642;2024-03-17T10:04:45;7.40;;;2.67;;
7247;SDS011;3665;51.034;13.642;2024-03-17T10:09:37;2.63;;;1.50;;
7247;SDS011;3665;51.034;13.642;2024-03-17T10:14:21;6.23;;;2.63;;
7247;SDS011;3665;51.034;13.642;2024-03-17T10:19:13;5.90;;;1.73;;
7247;SDS011;3665;51.034;13.642;2024-03-17T10:24:13;4.40;;;1.70;;
7247;SDS011;3665;51.034;13.642;2024-03-17T10:29:01;3.27;;;1.77;;
7247;SDS011;3665;51.034;13.642;2024-03-17T10:33:43;6.37;;;2.10;;
7247;SDS011;3665;51.034;13.642;2024-03-17T10:38:31;4.00;;;1.60;;
7247;SDS011;3665;51.034;13.642;2024-03-17T10:43:43;6.30;;;2.43;;
7247;SDS011;3665;51.034;13.642;2024-03-17T10:48:30;5.17;;;2.57;;
7247;SDS011;3665;51.034;13.642;2024-03-17T10:53:14;5.30;;;2.40;;
7247;SDS011;3665;51.034;13.642;2024-03-17T10:58:06;4.20;;;2.07;;
7247;SDS011;3665;51.034;13.642;2024-03-17T11:03:13;4.37;;;2.17;;
7247;SDS011;3665;51.034;13.642;2024-03-17T11:07:58;7.37;;;2.17;;
7247;SDS011;3665;51.034;13.642;2024-03-17T11:12:46;6.03;;;2.07;;
7247;SDS011;3665;51.034;13.642;2024-03-17T11:17:34;3.30;;;2.10;;
7247;SDS011;3665;51.034;13.642;2024-03-17T11:27:41;4.33;;;2.43;;
7247;SDS011;3665;51.034;13.642;2024-03-17T11:32:26;4.63;;;2.10;;
7247;SDS011;3665;51.034;13.642;2024-03-17T11:42:24;2.60;;;2.40;;
7247;SDS011;3665;51.034;13.642;2024-03-17T11:47:08;4.40;;;2.10;;
7247;SDS011;3665;51.034;13.642;2024-03-17T11:51:54;3.07;;;2.17;;
7247;SDS011;3665;51.034;13.642;2024-03-17T11:56:45;3.70;;;2.87;;
7247;SDS011;3665;51.034;13.642;2024-03-17T12:01:34;3.27;;;2.53;;
7247;SDS011;3665;51.034;13.642;2024-03-17T12:06:21;4.27;;;2.60;;
7247;SDS011;3665;51.034;13.642;2024-03-17T12:11:14;5.17;;;2.37;;
7247;SDS011;3665;51.034;13.642;2024-03-17T12:16:14;3.27;;;2.27;;
7247;SDS011;3665;51.034;13.642;2024-03-17T12:26:21;5.43;;;2.10;;
7247;SDS011;3665;51.034;13.642;2024-03-17T12:31:09;4.97;;;1.90;;
7247;SDS011;3665;51.034;13.642;2024-03-17T12:36:00;4.33;;;1.90;;
7247;SDS011;3665;51.034;13.642;2024-03-17T12:40:47;5.03;;;1.97;;
7247;SDS011;3665;51.034;13.642;2024-03-17T12:50:56;4.53;;;1.70;;
7247;SDS011;3665;51.034;13.642;2024-03-17T12:55:42;2.43;;;1.70;;
7247;SDS011;3665;51.034;13.642;2024-03-17T13:01:03;3.40;;;2.43;;
7247;SDS011;3665;51.034;13.642;2024-03-17T13:05:49;2.50;;;2.30;;
7247;SDS011;3665;51.034;13.642;2024-03-17T13:10:32;4.13;;;1.80;;
7247;SDS011;3665;51.034;13.642;2024-03-17T13:15:18;3.83;;;2.30;;
7247;SDS011;3665;51.034;13.642;2024-03-17T13:20:06;3.93;;;2.20;;
7247;SDS011;3665;51.034;13.642;2024-03-17T13:25:05;3.20;;;2.03;;
7247;SDS011;3665;51.034;13.642;2024-03-17T13:29:59;3.63;;;2.17;;
7247;SDS011;3665;51.034;13.642;2024-03-17T13:34:55;5.30;;;2.40;;
7247;SDS011;3665;51.034;13.642;2024-03-17T13:39:41;2.63;;;2.10;;
7247;SDS011;3665;51.034;13.642;2024-03-17T13:44:29;4.70;;;2.43;;
7247;SDS011;3665;51.034;13.642;2024-03-17T13:49:16;3.57;;;2.60;;
7247;SDS011;3665;51.034;13.642;2024-03-17T13:54:06;4.60;;;2.97;;
7247;SDS011;3665;51.034;13.642;2024-03-17T13:58:56;4.30;;;2.63;;
7247;SDS011;3665;51.034;13.642;2024-03-17T14:08:45;4.17;;;2.30;;
7247;SDS011;3665;51.034;13.642;2024-03-17T14:13:28;3.00;;;2.53;;
7247;SDS011;3665;51.034;13.642;2024-03-17T14:18:22;3.40;;;2.50;;
7247;SDS011;3665;51.034;13.642;2024-03-17T14:23:09;4.47;;;2.20;;
7247;SDS011;3665;51.034;13.642;2024-03-17T14:28:01;3.83;;;2.50;;
7247;SDS011;3665;51.034;13.642;2024-03-17T14:32:46;5.67;;;2.63;;
7247;SDS011;3665;51.034;13.642;2024-03-17T14:37:35;4.20;;;2.50;;
7247;SDS011;3665;51.034;13.642;2024-03-17T14:47:29;3.20;;;2.50;;
7247;SDS011;3665;51.034;13.642;2024-03-17T14:52:15;4.77;;;2.90;;
7247;SDS011;3665;51.034;13.642;2024-03-17T14:57:01;6.43;;;2.83;;
7247;SDS011;3665;51.034;13.642;2024-03-17T15:06:49;3.27;;;2.40;;
7247;SDS011;3665;51.034;13.642;2024-03-17T15:11:42;4.70;;;2.70;;
7247;SDS011;3665;51.034;13.642;2024-03-17T15:16:29;3.67;;;2.40;;
7247;SDS011;3665;51.034;13.642;2024-03-17T15:21:20;7.00;;;2.90;;
7247;SDS011;3665;51.034;13.642;2024-03-17T15:26:07;4.30;;;3.07;;
7247;SDS011;3665;51.034;13.642;2024-03-17T15:30:56;3.87;;;2.77;;
7247;SDS011;3665;51.034;13.642;2024-03-17T15:35:41;4.60;;;2.83;;
7247;SDS011;3665;51.034;13.642;2024-03-17T15:40:29;5.00;;;2.47;;
7247;SDS011;3665;51.034;13.642;2024-03-17T15:45:18;5.87;;;3.23;;
7247;SDS011;3665;51.034;13.642;2024-03-17T15:50:06;4.57;;;3.00;;
7247;SDS011;3665;51.034;13.642;2024-03-17T15:54:52;4.40;;;3.00;;
7247;SDS011;3665;51.034;13.642;2024-03-17T16:04:55;5.50;;;2.93;;
7247;SDS011;3665;51.034;13.642;2024-03-17T16:09:51;4.23;;;2.73;;
7247;SDS011;3665;51.034;13.642;2024-03-17T16:14:38;5.67;;;2.77;;
7247;SDS011;3665;51.034;13.642;2024-03-17T16:19:43;4.97;;;2.87;;
7247;SDS011;3665;51.034;13.642;2024-03-17T16:24:31;5.10;;;3.80;;
7247;SDS011;3665;51.034;13.642;2024-03-17T16:29:19;7.37;;;3.50;;
7247;SDS011;3665;51.034;13.642;2024-03-17T16:34:15;10.23;;;4.03;;
7247;SDS011;3665;51.034;13.642;2024-03-17T16:44:08;4.97;;;3.53;;
7247;SDS011;3665;51.034;13.642;2024-03-17T16:49:01;4.47;;;3.30;;
7247;SDS011;3665;51.034;13.642;2024-03-17T16:53:52;7.17;;;4.37;;
7247;SDS011;3665;51.034;13.642;2024-03-17T16:58:37;8.37;;;4.27;;
7247;SDS011;3665;51.034;13.642;2024-03-17T17:03:26;9.50;;;4.27;;
7247;SDS011;3665;51.034;13.642;2024-03-17T17:08:09;5.57;;;4.20;;
7247;SDS011;3665;51.034;13.642;2024-03-17T17:13:04;6.50;;;3.53;;
7247;SDS011;3665;51.034;13.642;2024-03-17T17:17:49;4.83;;;3.27;;
7247;SDS011;3665;51.034;13.642;2024-03-17T17:22:32;6.87;;;4.17;;
7247;SDS011;3665;51.034;13.642;2024-03-17T17:27:26;9.80;;;5.47;;
7247;SDS011;3665;51.034;13.642;2024-03-17T17:32:10;5.40;;;4.40;;
7247;SDS011;3665;51.034;13.642;2024-03-17T17:37:11;5.20;;;4.50;;
7247;SDS011;3665;51.034;13.642;2024-03-17T17:42:06;7.47;;;4.43;;
7247;SDS011;3665;51.034;13.642;2024-03-17T17:46:53;7.20;;;4.93;;
7247;SDS011;3665;51.034;13.642;2024-03-17T17:51:41;7.00;;;4.30;;
7247;SDS011;3665;51.034;13.642;2024-03-17T17:56:30;5.20;;;3.73;;
7247;SDS011;3665;51.034;13.642;2024-03-17T18:01:18;5.97;;;3.90;;
7247;SDS011;3665;51.034;13.642;2024-03-17T18:06:07;5.63;;;4.27;;
7247;SDS011;3665;51.034;13.642;2024-03-17T18:10:52;7.70;;;4.37;;
7247;SDS011;3665;51.034;13.642;2024-03-17T18:15:41;5.70;;;3.83;;
7247;SDS011;3665;51.034;13.642;2024-03-17T18:20:32;7.10;;;4.07;;
7247;SDS011;3665;51.034;13.642;2024-03-17T18:25:15;8.67;;;4.27;;
7247;SDS011;3665;51.034;13.642;2024-03-17T18:30:03;7.33;;;3.93;;
7247;SDS011;3665;51.034;13.642;2024-03-17T18:34:53;5.03;;;3.87;;
7247;SDS011;3665;51.034;13.642;2024-03-17T18:39:38;5.73;;;3.70;;
7247;SDS011;3665;51.034;13.642;2024-03-17T18:44:28;6.23;;;3.87;;
7247;SDS011;3665;51.034;13.642;2024-03-17T18:49:17;4.70;;;3.33;;
7247;SDS011;3665;51.034;13.642;2024-03-17T18:59:28;5.33;;;4.40;;
7247;SDS011;3665;51.034;13.642;2024-03-17T19:04:13;7.90;;;3.90;;
7247;SDS011;3665;51.034;13.642;2024-03-17T19:08:55;4.90;;;3.17;;
7247;SDS011;3665;51.034;13.642;2024-03-17T19:13:46;4.17;;;3.77;;
7247;SDS011;3665;51.034;13.642;2024-03-17T19:18:39;9.17;;;3.97;;
7247;SDS011;3665;51.034;13.642;2024-03-17T19:23:25;5.43;;;3.60;;
7247;SDS011;3665;51.034;13.642;2024-03-17T19:28:16;6.07;;;3.47;;
7247;SDS011;3665;51.034;13.642;2024-03-17T19:33:01;5.20;;;3.77;;
7247;SDS011;3665;51.034;13.642;2024-03-17T19:37:49;4.60;;;3.20;;
7247;SDS011;3665;51.034;13.642;2024-03-17T19:42:37;6.77;;;3.90;;
7247;SDS011;3665;51.034;13.642;2024-03-17T19:47:26;7.90;;;4.80;;
7247;SDS011;3665;51.034;13.642;2024-03-17T19:52:12;7.03;;;4.17;;
7247;SDS011;3665;51.034;13.642;2024-03-17T19:56:57;4.33;;;3.00;;
7247;SDS011;3665;51.034;13.642;2024-03-17T20:01:44;7.83;;;3.80;;
7247;SDS011;3665;51.034;13.642;2024-03-17T20:06:37;5.70;;;3.10;;
7247;SDS011;3665;51.034;13.642;2024-03-17T20:11:26;9.03;;;5.30;;
7247;SDS011;3665;51.034;13.642;2024-03-17T20:16:18;4.63;;;4.13;;
7247;SDS011;3665;51.034;13.642;2024-03-17T20:21:17;6.27;;;2.70;;
7247;SDS011;3665;51.034;13.642;2024-03-17T20:26:09;4.20;;;2.90;;
7247;SDS011;3665;51.034;13.642;2024-03-17T20:30:58;8.70;;;5.00;;
7247;SDS011;3665;51.034;13.642;2024-03-17T20:35:42;6.10;;;3.47;;
7247;SDS011;3665;51.034;13.642;2024-03-17T20:40:28;6.03;;;3.33;;
7247;SDS011;3665;51.034;13.642;2024-03-17T20:45:17;9.20;;;3.33;;
7247;SDS011;3665;51.034;13.642;2024-03-17T20:50:07;5.47;;;3.50;;
7247;SDS011;3665;51.034;13.642;2024-03-17T20:55:17;6.73;;;3.23;;
7247;SDS011;3665;51.034;13.642;2024-03-17T23:12:03;8.25;;;5.50;;
7247;SDS011;3665;51.034;13.642;2024-03-17T23:16:54;8.90;;;5.53;;
7247;SDS011;3665;51.034;13.642;2024-03-17T23:21:51;8.87;;;5.43;;
7247;SDS011;3665;51.034;13.642;2024-03-17T23:26:39;10.40;;;6.10;;
7247;SDS011;3665;51.034;13.642;2024-03-17T23:31:26;7.20;;;5.70;;
7247;SDS011;3665;51.034;13.642;2024-03-17T23:36:14;8.80;;;6.67;;
7247;SDS011;3665;51.034;13.642;2024-03-17T23:41:00;7.43;;;6.10;;
7247;SDS011;3665;51.034;13.642;2024-03-17T23:45:47;10.23;;;5.30;;
7247;SDS011;3665;51.034;13.642;2024-03-17T23:50:47;8.83;;;5.20;;
7247;SDS011;3665;51.034;13.642;2024-03-17T23:55:43;14.27;;;6.70;;
